sensor_id;sensor_type;location;lat;lon;timestamp;temperature;humidity
25877;DHT22;13692;47.480;19.216;2023-07-16T00:00:27;23.20;99.90
25877;DHT22;13692;47.480;19.216;2023-07-16T00:02:54;23.20;99.90
25877;DHT22;13692;47.480;19.216;2023-07-16T00:05:22;23.10;99.90
25877;DHT22;13692;47.480;19.216;2023-07-16T00:07:49;23.10;99.90
25877;DHT22;13692;47.480;19.216;2023-07-16T00:10:16;23.20;99.90
25877;DHT22;13692;47.480;19.216;2023-07-16T00:12:43;23.10;99.90
25877;DHT22;13692;47.480;19.216;2023-07-16T00:15:10;23.10;99.90
25877;DHT22;13692;47.480;19.216;2023-07-16T00:17:37;23.00;99.90
25877;DHT22;13692;47.480;19.216;2023-07-16T00:20:05;22.90;99.90
25877;DHT22;13692;47.480;19.216;2023-07-16T00:22:33;22.90;99.90
25877;DHT22;13692;47.480;19.216;2023-07-16T00:25:00;22.80;99.90
25877;DHT22;13692;47.480;19.216;2023-07-16T00:27:28;22.70;99.90
25877;DHT22;13692;47.480;19.216;2023-07-16T00:29:55;22.50;99.90
25877;DHT22;13692;47.480;19.216;2023-07-16T00:32:22;22.30;99.90
25877;DHT22;13692;47.480;19.216;2023-07-16T00:34:50;22.20;99.90
25877;DHT22;13692;47.480;19.216;2023-07-16T00:37:17;22.10;99.90
25877;DHT22;13692;47.480;19.216;2023-07-16T00:39:44;22.10;99.90
25877;DHT22;13692;47.480;19.216;2023-07-16T00:42:11;21.90;99.90
25877;DHT22;13692;47.480;19.216;2023-07-16T00:44:38;21.90;99.90
25877;DHT22;13692;47.480;19.216;2023-07-16T00:47:05;21.80;99.90
25877;DHT22;13692;47.480;19.216;2023-07-16T00:49:32;21.90;99.90
25877;DHT22;13692;47.480;19.216;2023-07-16T00:52:00;21.90;99.90
25877;DHT22;13692;47.480;19.216;2023-07-16T00:54:29;21.90;99.90
25877;DHT22;13692;47.480;19.216;2023-07-16T00:56:56;21.90;99.90
25877;DHT22;13692;47.480;19.216;2023-07-16T00:59:24;21.80;99.90
25877;DHT22;13692;47.480;19.216;2023-07-16T01:01:51;21.80;99.90
25877;DHT22;13692;47.480;19.216;2023-07-16T01:04:18;21.80;99.90
25877;DHT22;13692;47.480;19.216;2023-07-16T01:06:48;21.80;99.90
25877;DHT22;13692;47.480;19.216;2023-07-16T01:09:19;21.80;99.90
25877;DHT22;13692;47.480;19.216;2023-07-16T01:11:47;21.80;99.90
25877;DHT22;13692;47.480;19.216;2023-07-16T01:14:17;21.70;99.90
25877;DHT22;13692;47.480;19.216;2023-07-16T01:16:45;21.70;99.90
25877;DHT22;13692;47.480;19.216;2023-07-16T01:19:12;21.60;99.90
25877;DHT22;13692;47.480;19.216;2023-07-16T01:25:09;21.60;99.90
25877;DHT22;13692;47.480;19.216;2023-07-16T01:27:59;21.60;99.90
25877;DHT22;13692;47.480;19.216;2023-07-16T01:30:32;21.60;99.90
25877;DHT22;13692;47.480;19.216;2023-07-16T01:33:01;21.60;99.90
25877;DHT22;13692;47.480;19.216;2023-07-16T01:35:30;21.60;99.90
25877;DHT22;13692;47.480;19.216;2023-07-16T01:37:58;21.60;99.90
25877;DHT22;13692;47.480;19.216;2023-07-16T01:40:25;21.60;99.90
25877;DHT22;13692;47.480;19.216;2023-07-16T01:42:54;21.70;99.90
25877;DHT22;13692;47.480;19.216;2023-07-16T01:45:21;21.70;99.90
25877;DHT22;13692;47.480;19.216;2023-07-16T01:50:15;21.70;99.90
25877;DHT22;13692;47.480;19.216;2023-07-16T01:52:42;21.70;99.90
25877;DHT22;13692;47.480;19.216;2023-07-16T01:55:09;21.80;99.90
25877;DHT22;13692;47.480;19.216;2023-07-16T01:57:36;21.80;99.90
25877;DHT22;13692;47.480;19.216;2023-07-16T02:00:03;21.80;99.90
25877;DHT22;13692;47.480;19.216;2023-07-16T02:02:31;21.80;99.90
25877;DHT22;13692;47.480;19.216;2023-07-16T02:04:58;21.70;99.90
25877;DHT22;13692;47.480;19.216;2023-07-16T02:07:25;21.70;99.90
25877;DHT22;13692;47.480;19.216;2023-07-16T02:09:52;21.70;99.90
25877;DHT22;13692;47.480;19.216;2023-07-16T02:12:19;21.70;99.90
25877;DHT22;13692;47.480;19.216;2023-07-16T02:14:46;21.60;99.90
25877;DHT22;13692;47.480;19.216;2023-07-16T02:17:13;21.60;99.90
25877;DHT22;13692;47.480;19.216;2023-07-16T02:19:39;21.50;99.90
25877;DHT22;13692;47.480;19.216;2023-07-16T02:22:07;21.40;99.90
25877;DHT22;13692;47.480;19.216;2023-07-16T02:24:34;21.30;99.90
25877;DHT22;13692;47.480;19.216;2023-07-16T02:27:02;21.30;99.90
25877;DHT22;13692;47.480;19.216;2023-07-16T02:29:31;21.30;99.90
25877;DHT22;13692;47.480;19.216;2023-07-16T02:31:58;21.20;99.90
25877;DHT22;13692;47.480;19.216;2023-07-16T02:34:25;21.10;99.90
25877;DHT22;13692;47.480;19.216;2023-07-16T02:36:52;21.10;99.90
25877;DHT22;13692;47.480;19.216;2023-07-16T02:39:19;21.10;99.90
25877;DHT22;13692;47.480;19.216;2023-07-16T02:41:46;21.00;99.90
25877;DHT22;13692;47.480;19.216;2023-07-16T02:44:13;21.00;99.90
25877;DHT22;13692;47.480;19.216;2023-07-16T02:46:40;21.00;99.90
25877;DHT22;13692;47.480;19.216;2023-07-16T02:49:08;21.00;99.90
25877;DHT22;13692;47.480;19.216;2023-07-16T02:51:35;21.00;99.90
25877;DHT22;13692;47.480;19.216;2023-07-16T02:54:02;21.00;99.90
25877;DHT22;13692;47.480;19.216;2023-07-16T02:56:29;21.00;99.90
25877;DHT22;13692;47.480;19.216;2023-07-16T02:58:56;21.00;99.90
25877;DHT22;13692;47.480;19.216;2023-07-16T03:01:23;20.90;99.90
25877;DHT22;13692;47.480;19.216;2023-07-16T03:03:50;20.90;99.90
25877;DHT22;13692;47.480;19.216;2023-07-16T03:06:17;20.90;99.90
25877;DHT22;13692;47.480;19.216;2023-07-16T03:08:48;20.90;99.90
25877;DHT22;13692;47.480;19.216;2023-07-16T03:11:15;20.80;99.90
25877;DHT22;13692;47.480;19.216;2023-07-16T03:13:42;20.80;99.90
25877;DHT22;13692;47.480;19.216;2023-07-16T03:16:09;20.80;99.90
25877;DHT22;13692;47.480;19.216;2023-07-16T03:18:39;20.80;99.90
25877;DHT22;13692;47.480;19.216;2023-07-16T03:21:06;20.80;99.90
25877;DHT22;13692;47.480;19.216;2023-07-16T03:23:33;20.80;99.90
25877;DHT22;13692;47.480;19.216;2023-07-16T03:26:00;20.80;99.90
25877;DHT22;13692;47.480;19.216;2023-07-16T03:28:27;20.90;99.90
25877;DHT22;13692;47.480;19.216;2023-07-16T03:30:54;21.10;99.90
25877;DHT22;13692;47.480;19.216;2023-07-16T03:33:21;21.30;99.90
25877;DHT22;13692;47.480;19.216;2023-07-16T03:35:49;21.40;99.90
25877;DHT22;13692;47.480;19.216;2023-07-16T03:38:16;21.60;99.90
25877;DHT22;13692;47.480;19.216;2023-07-16T03:40:48;21.80;99.90
25877;DHT22;13692;47.480;19.216;2023-07-16T03:43:16;22.00;99.90
25877;DHT22;13692;47.480;19.216;2023-07-16T03:45:43;22.10;99.90
25877;DHT22;13692;47.480;19.216;2023-07-16T03:48:10;22.40;99.90
25877;DHT22;13692;47.480;19.216;2023-07-16T03:50:37;22.70;99.90
25877;DHT22;13692;47.480;19.216;2023-07-16T03:53:05;22.80;99.90
25877;DHT22;13692;47.480;19.216;2023-07-16T03:55:31;23.10;99.90
25877;DHT22;13692;47.480;19.216;2023-07-16T03:57:58;23.40;99.90
25877;DHT22;13692;47.480;19.216;2023-07-16T04:00:25;23.60;99.90
25877;DHT22;13692;47.480;19.216;2023-07-16T04:02:52;23.90;99.90
25877;DHT22;13692;47.480;19.216;2023-07-16T04:05:20;24.10;99.90
25877;DHT22;13692;47.480;19.216;2023-07-16T04:07:50;24.20;99.90
25877;DHT22;13692;47.480;19.216;2023-07-16T04:10:17;24.30;99.90
25877;DHT22;13692;47.480;19.216;2023-07-16T04:12:44;24.50;99.90
25877;DHT22;13692;47.480;19.216;2023-07-16T04:15:14;24.80;99.90
25877;DHT22;13692;47.480;19.216;2023-07-16T04:17:42;24.90;99.90
25877;DHT22;13692;47.480;19.216;2023-07-16T04:20:09;24.90;99.90
25877;DHT22;13692;47.480;19.216;2023-07-16T04:22:36;24.80;99.90
25877;DHT22;13692;47.480;19.216;2023-07-16T04:25:03;25.00;99.90
25877;DHT22;13692;47.480;19.216;2023-07-16T04:27:31;25.10;99.90
25877;DHT22;13692;47.480;19.216;2023-07-16T04:29:58;24.90;99.90
25877;DHT22;13692;47.480;19.216;2023-07-16T04:32:25;25.00;99.90
25877;DHT22;13692;47.480;19.216;2023-07-16T04:34:52;25.20;99.90
25877;DHT22;13692;47.480;19.216;2023-07-16T04:37:19;25.60;99.90
25877;DHT22;13692;47.480;19.216;2023-07-16T04:39:46;25.70;99.90
25877;DHT22;13692;47.480;19.216;2023-07-16T04:42:13;26.10;99.90
25877;DHT22;13692;47.480;19.216;2023-07-16T04:44:40;26.50;99.90
25877;DHT22;13692;47.480;19.216;2023-07-16T04:47:06;26.90;99.90
25877;DHT22;13692;47.480;19.216;2023-07-16T04:49:34;27.00;99.90
25877;DHT22;13692;47.480;19.216;2023-07-16T04:52:02;27.10;99.90
25877;DHT22;13692;47.480;19.216;2023-07-16T04:54:35;27.10;99.90
25877;DHT22;13692;47.480;19.216;2023-07-16T04:57:02;27.30;99.90
25877;DHT22;13692;47.480;19.216;2023-07-16T04:59:29;27.10;99.90
25877;DHT22;13692;47.480;19.216;2023-07-16T05:01:56;27.20;99.90
25877;DHT22;13692;47.480;19.216;2023-07-16T05:04:23;27.50;99.90
25877;DHT22;13692;47.480;19.216;2023-07-16T05:06:51;27.80;99.90
25877;DHT22;13692;47.480;19.216;2023-07-16T05:09:18;28.00;99.90
25877;DHT22;13692;47.480;19.216;2023-07-16T05:11:47;28.10;99.90
25877;DHT22;13692;47.480;19.216;2023-07-16T05:14:14;28.20;99.90
25877;DHT22;13692;47.480;19.216;2023-07-16T05:16:40;27.90;99.90
25877;DHT22;13692;47.480;19.216;2023-07-16T05:19:07;27.90;99.90
25877;DHT22;13692;47.480;19.216;2023-07-16T05:21:34;28.30;99.90
25877;DHT22;13692;47.480;19.216;2023-07-16T05:24:01;28.60;99.90
25877;DHT22;13692;47.480;19.216;2023-07-16T05:26:29;29.10;99.90
25877;DHT22;13692;47.480;19.216;2023-07-16T05:28:56;29.50;99.90
25877;DHT22;13692;47.480;19.216;2023-07-16T05:31:22;29.60;99.90
25877;DHT22;13692;47.480;19.216;2023-07-16T05:33:50;29.90;99.90
25877;DHT22;13692;47.480;19.216;2023-07-16T05:36:17;30.10;99.90
25877;DHT22;13692;47.480;19.216;2023-07-16T05:38:44;29.90;99.90
25877;DHT22;13692;47.480;19.216;2023-07-16T05:41:11;30.30;99.90
25877;DHT22;13692;47.480;19.216;2023-07-16T05:43:38;30.60;99.90
25877;DHT22;13692;47.480;19.216;2023-07-16T05:46:05;31.00;99.90
25877;DHT22;13692;47.480;19.216;2023-07-16T05:48:32;31.30;99.90
25877;DHT22;13692;47.480;19.216;2023-07-16T05:50:59;31.60;99.90
25877;DHT22;13692;47.480;19.216;2023-07-16T05:53:26;31.70;99.90
25877;DHT22;13692;47.480;19.216;2023-07-16T05:55:53;31.70;99.30
25877;DHT22;13692;47.480;19.216;2023-07-16T05:58:20;31.80;99.10
25877;DHT22;13692;47.480;19.216;2023-07-16T06:00:47;31.80;98.50
25877;DHT22;13692;47.480;19.216;2023-07-16T06:03:14;31.90;98.90
25877;DHT22;13692;47.480;19.216;2023-07-16T06:05:43;32.20;98.20
25877;DHT22;13692;47.480;19.216;2023-07-16T06:08:10;32.20;97.20
25877;DHT22;13692;47.480;19.216;2023-07-16T06:10:38;32.00;98.00
25877;DHT22;13692;47.480;19.216;2023-07-16T06:13:05;32.00;97.50
25877;DHT22;13692;47.480;19.216;2023-07-16T06:15:32;31.80;97.70
25877;DHT22;13692;47.480;19.216;2023-07-16T06:17:59;32.00;97.30
25877;DHT22;13692;47.480;19.216;2023-07-16T06:20:26;32.20;97.10
25877;DHT22;13692;47.480;19.216;2023-07-16T06:22:53;32.10;96.70
25877;DHT22;13692;47.480;19.216;2023-07-16T06:25:20;32.40;97.10
25877;DHT22;13692;47.480;19.216;2023-07-16T06:27:47;32.70;95.80
25877;DHT22;13692;47.480;19.216;2023-07-16T06:30:14;32.90;95.50
25877;DHT22;13692;47.480;19.216;2023-07-16T06:32:43;33.00;95.10
25877;DHT22;13692;47.480;19.216;2023-07-16T06:35:10;33.20;94.70
25877;DHT22;13692;47.480;19.216;2023-07-16T06:37:37;33.50;94.40
25877;DHT22;13692;47.480;19.216;2023-07-16T06:40:05;33.90;94.30
25877;DHT22;13692;47.480;19.216;2023-07-16T06:42:32;34.00;93.30
25877;DHT22;13692;47.480;19.216;2023-07-16T06:44:59;33.90;93.60
25877;DHT22;13692;47.480;19.216;2023-07-16T06:47:26;34.10;93.80
25877;DHT22;13692;47.480;19.216;2023-07-16T06:49:53;34.40;93.00
25877;DHT22;13692;47.480;19.216;2023-07-16T06:52:21;34.60;92.00
25877;DHT22;13692;47.480;19.216;2023-07-16T06:54:48;34.60;90.50
25877;DHT22;13692;47.480;19.216;2023-07-16T06:57:15;34.50;90.10
25877;DHT22;13692;47.480;19.216;2023-07-16T06:59:42;34.60;90.30
25877;DHT22;13692;47.480;19.216;2023-07-16T07:02:09;34.60;89.50
25877;DHT22;13692;47.480;19.216;2023-07-16T07:04:36;34.60;89.00
25877;DHT22;13692;47.480;19.216;2023-07-16T07:07:03;34.70;88.50
25877;DHT22;13692;47.480;19.216;2023-07-16T07:09:30;34.70;88.70
25877;DHT22;13692;47.480;19.216;2023-07-16T07:11:57;34.80;87.70
25877;DHT22;13692;47.480;19.216;2023-07-16T07:14:25;34.70;87.90
25877;DHT22;13692;47.480;19.216;2023-07-16T07:16:52;34.60;87.90
25877;DHT22;13692;47.480;19.216;2023-07-16T07:19:19;34.30;87.70
25877;DHT22;13692;47.480;19.216;2023-07-16T07:21:46;34.40;88.70
25877;DHT22;13692;47.480;19.216;2023-07-16T07:24:12;34.50;87.90
25877;DHT22;13692;47.480;19.216;2023-07-16T07:26:40;34.50;88.00
25877;DHT22;13692;47.480;19.216;2023-07-16T07:29:06;34.80;87.20
25877;DHT22;13692;47.480;19.216;2023-07-16T07:31:34;35.00;88.20
25877;DHT22;13692;47.480;19.216;2023-07-16T07:34:01;35.20;87.90
25877;DHT22;13692;47.480;19.216;2023-07-16T07:36:29;35.10;87.30
25877;DHT22;13692;47.480;19.216;2023-07-16T07:38:56;35.20;86.40
25877;DHT22;13692;47.480;19.216;2023-07-16T07:41:23;35.10;87.80
25877;DHT22;13692;47.480;19.216;2023-07-16T07:43:50;35.20;86.90
25877;DHT22;13692;47.480;19.216;2023-07-16T07:46:17;35.20;86.10
25877;DHT22;13692;47.480;19.216;2023-07-16T07:48:44;35.30;86.10
25877;DHT22;13692;47.480;19.216;2023-07-16T07:51:11;35.50;86.70
25877;DHT22;13692;47.480;19.216;2023-07-16T07:53:38;35.50;84.70
25877;DHT22;13692;47.480;19.216;2023-07-16T07:56:05;35.30;85.30
25877;DHT22;13692;47.480;19.216;2023-07-16T07:58:32;35.30;85.80
25877;DHT22;13692;47.480;19.216;2023-07-16T08:01:08;35.30;85.80
25877;DHT22;13692;47.480;19.216;2023-07-16T08:03:35;35.30;85.70
25877;DHT22;13692;47.480;19.216;2023-07-16T08:06:03;35.50;85.40
25877;DHT22;13692;47.480;19.216;2023-07-16T08:08:30;35.60;86.40
25877;DHT22;13692;47.480;19.216;2023-07-16T08:10:56;35.80;84.90
25877;DHT22;13692;47.480;19.216;2023-07-16T08:13:24;35.60;84.00
25877;DHT22;13692;47.480;19.216;2023-07-16T08:15:51;35.80;84.60
25877;DHT22;13692;47.480;19.216;2023-07-16T08:18:18;35.80;84.60
25877;DHT22;13692;47.480;19.216;2023-07-16T08:20:46;35.40;84.60
25877;DHT22;13692;47.480;19.216;2023-07-16T08:23:13;35.40;84.50
25877;DHT22;13692;47.480;19.216;2023-07-16T08:25:40;35.40;85.40
25877;DHT22;13692;47.480;19.216;2023-07-16T08:28:07;35.70;83.40
25877;DHT22;13692;47.480;19.216;2023-07-16T08:30:34;35.40;82.70
25877;DHT22;13692;47.480;19.216;2023-07-16T08:33:02;35.40;83.40
25877;DHT22;13692;47.480;19.216;2023-07-16T08:35:29;35.60;83.60
25877;DHT22;13692;47.480;19.216;2023-07-16T08:37:56;35.80;83.80
25877;DHT22;13692;47.480;19.216;2023-07-16T08:40:23;35.90;82.40
25877;DHT22;13692;47.480;19.216;2023-07-16T08:42:50;35.70;83.20
25877;DHT22;13692;47.480;19.216;2023-07-16T08:45:19;35.60;82.60
25877;DHT22;13692;47.480;19.216;2023-07-16T08:47:49;35.60;83.60
25877;DHT22;13692;47.480;19.216;2023-07-16T08:50:16;35.80;82.80
25877;DHT22;13692;47.480;19.216;2023-07-16T08:52:45;35.80;82.50
25877;DHT22;13692;47.480;19.216;2023-07-16T08:55:16;35.70;82.40
25877;DHT22;13692;47.480;19.216;2023-07-16T08:57:44;35.70;83.30
25877;DHT22;13692;47.480;19.216;2023-07-16T09:00:13;35.90;83.50
25877;DHT22;13692;47.480;19.216;2023-07-16T09:02:41;36.10;84.10
25877;DHT22;13692;47.480;19.216;2023-07-16T09:05:09;36.40;83.70
25877;DHT22;13692;47.480;19.216;2023-07-16T09:07:46;36.50;82.10
25877;DHT22;13692;47.480;19.216;2023-07-16T09:10:13;36.20;82.80
25877;DHT22;13692;47.480;19.216;2023-07-16T09:12:46;36.00;83.20
25877;DHT22;13692;47.480;19.216;2023-07-16T09:15:17;36.10;83.30
25877;DHT22;13692;47.480;19.216;2023-07-16T09:17:49;35.90;84.40
25877;DHT22;13692;47.480;19.216;2023-07-16T09:20:17;36.00;83.80
25877;DHT22;13692;47.480;19.216;2023-07-16T09:22:44;35.90;84.50
25877;DHT22;13692;47.480;19.216;2023-07-16T09:25:11;35.90;84.80
25877;DHT22;13692;47.480;19.216;2023-07-16T09:27:39;35.70;84.90
25877;DHT22;13692;47.480;19.216;2023-07-16T09:30:06;35.70;85.70
25877;DHT22;13692;47.480;19.216;2023-07-16T09:32:38;36.10;85.00
25877;DHT22;13692;47.480;19.216;2023-07-16T09:35:14;36.50;83.20
25877;DHT22;13692;47.480;19.216;2023-07-16T09:37:44;36.00;83.70
25877;DHT22;13692;47.480;19.216;2023-07-16T09:40:12;35.30;85.00
25877;DHT22;13692;47.480;19.216;2023-07-16T09:42:40;34.80;86.60
25877;DHT22;13692;47.480;19.216;2023-07-16T09:45:20;34.90;87.00
25877;DHT22;13692;47.480;19.216;2023-07-16T09:47:47;35.00;86.90
25877;DHT22;13692;47.480;19.216;2023-07-16T09:50:14;35.10;87.30
25877;DHT22;13692;47.480;19.216;2023-07-16T09:52:41;35.10;87.00
25877;DHT22;13692;47.480;19.216;2023-07-16T09:55:09;34.70;87.50
25877;DHT22;13692;47.480;19.216;2023-07-16T09:57:39;34.80;86.90
25877;DHT22;13692;47.480;19.216;2023-07-16T10:00:09;35.00;86.80
25877;DHT22;13692;47.480;19.216;2023-07-16T10:02:39;34.90;87.30
25877;DHT22;13692;47.480;19.216;2023-07-16T10:05:24;34.90;87.40
25877;DHT22;13692;47.480;19.216;2023-07-16T10:08:00;34.70;87.70
25877;DHT22;13692;47.480;19.216;2023-07-16T10:10:41;34.50;88.40
25877;DHT22;13692;47.480;19.216;2023-07-16T10:13:11;34.00;89.20
25877;DHT22;13692;47.480;19.216;2023-07-16T10:15:50;33.90;90.00
25877;DHT22;13692;47.480;19.216;2023-07-16T10:18:49;33.70;90.50
25877;DHT22;13692;47.480;19.216;2023-07-16T10:21:23;33.70;90.40
25877;DHT22;13692;47.480;19.216;2023-07-16T10:23:57;33.60;90.50
25877;DHT22;13692;47.480;19.216;2023-07-16T10:26:28;33.50;90.70
25877;DHT22;13692;47.480;19.216;2023-07-16T10:28:56;33.60;90.80
25877;DHT22;13692;47.480;19.216;2023-07-16T10:31:24;33.60;90.90
25877;DHT22;13692;47.480;19.216;2023-07-16T10:34:04;33.60;90.70
25877;DHT22;13692;47.480;19.216;2023-07-16T10:36:39;33.50;90.90
25877;DHT22;13692;47.480;19.216;2023-07-16T10:39:06;33.40;91.00
25877;DHT22;13692;47.480;19.216;2023-07-16T10:41:33;33.70;90.50
25877;DHT22;13692;47.480;19.216;2023-07-16T10:44:01;33.70;90.50
25877;DHT22;13692;47.480;19.216;2023-07-16T10:46:28;33.50;90.80
25877;DHT22;13692;47.480;19.216;2023-07-16T10:48:57;33.30;91.20
25877;DHT22;13692;47.480;19.216;2023-07-16T10:51:27;33.30;91.40
25877;DHT22;13692;47.480;19.216;2023-07-16T10:53:57;33.40;91.60
25877;DHT22;13692;47.480;19.216;2023-07-16T10:56:25;33.30;91.70
25877;DHT22;13692;47.480;19.216;2023-07-16T10:58:52;33.30;91.30
25877;DHT22;13692;47.480;19.216;2023-07-16T11:01:20;33.20;91.50
25877;DHT22;13692;47.480;19.216;2023-07-16T11:03:47;32.90;91.40
25877;DHT22;13692;47.480;19.216;2023-07-16T11:06:14;32.80;91.40
25877;DHT22;13692;47.480;19.216;2023-07-16T11:08:44;33.00;91.10
25877;DHT22;13692;47.480;19.216;2023-07-16T11:11:11;33.00;91.20
25877;DHT22;13692;47.480;19.216;2023-07-16T11:13:38;32.90;91.20
25877;DHT22;13692;47.480;19.216;2023-07-16T11:16:09;32.90;91.10
25877;DHT22;13692;47.480;19.216;2023-07-16T11:18:36;33.10;91.00
25877;DHT22;13692;47.480;19.216;2023-07-16T11:21:04;33.50;88.70
25877;DHT22;13692;47.480;19.216;2023-07-16T11:23:37;33.60;87.40
25877;DHT22;13692;47.480;19.216;2023-07-16T11:26:04;33.70;88.50
25877;DHT22;13692;47.480;19.216;2023-07-16T11:28:41;33.80;87.30
25877;DHT22;13692;47.480;19.216;2023-07-16T11:31:15;33.70;88.90
25877;DHT22;13692;47.480;19.216;2023-07-16T11:33:46;33.80;88.30
25877;DHT22;13692;47.480;19.216;2023-07-16T11:36:13;34.00;85.60
25877;DHT22;13692;47.480;19.216;2023-07-16T11:38:41;33.90;84.80
25877;DHT22;13692;47.480;19.216;2023-07-16T11:41:09;33.90;85.60
25877;DHT22;13692;47.480;19.216;2023-07-16T11:43:36;33.90;84.60
25877;DHT22;13692;47.480;19.216;2023-07-16T11:46:15;34.00;82.90
25877;DHT22;13692;47.480;19.216;2023-07-16T11:48:43;34.00;83.90
25877;DHT22;13692;47.480;19.216;2023-07-16T11:51:10;33.90;85.10
25877;DHT22;13692;47.480;19.216;2023-07-16T11:53:37;33.90;84.40
25877;DHT22;13692;47.480;19.216;2023-07-16T11:56:06;33.80;84.50
25877;DHT22;13692;47.480;19.216;2023-07-16T11:58:32;33.90;83.50
25877;DHT22;13692;47.480;19.216;2023-07-16T12:01:00;34.00;82.90
25877;DHT22;13692;47.480;19.216;2023-07-16T12:03:27;33.90;84.10
25877;DHT22;13692;47.480;19.216;2023-07-16T12:05:54;34.00;82.10
25877;DHT22;13692;47.480;19.216;2023-07-16T12:08:21;34.00;84.10
25877;DHT22;13692;47.480;19.216;2023-07-16T12:10:48;33.70;85.10
25877;DHT22;13692;47.480;19.216;2023-07-16T12:13:15;33.50;84.70
25877;DHT22;13692;47.480;19.216;2023-07-16T12:15:42;33.40;85.00
25877;DHT22;13692;47.480;19.216;2023-07-16T12:18:09;33.60;83.80
25877;DHT22;13692;47.480;19.216;2023-07-16T12:20:36;34.00;82.20
25877;DHT22;13692;47.480;19.216;2023-07-16T12:23:03;34.00;81.90
25877;DHT22;13692;47.480;19.216;2023-07-16T12:25:30;33.90;83.20
25877;DHT22;13692;47.480;19.216;2023-07-16T12:27:57;33.80;83.20
25877;DHT22;13692;47.480;19.216;2023-07-16T12:30:25;33.70;83.90
25877;DHT22;13692;47.480;19.216;2023-07-16T12:32:53;33.60;83.90
25877;DHT22;13692;47.480;19.216;2023-07-16T12:35:20;33.80;83.70
25877;DHT22;13692;47.480;19.216;2023-07-16T12:37:47;33.90;85.00
25877;DHT22;13692;47.480;19.216;2023-07-16T12:40:14;33.80;84.40
25877;DHT22;13692;47.480;19.216;2023-07-16T12:42:41;33.80;84.70
25877;DHT22;13692;47.480;19.216;2023-07-16T12:45:08;34.00;85.10
25877;DHT22;13692;47.480;19.216;2023-07-16T12:47:35;34.10;85.00
25877;DHT22;13692;47.480;19.216;2023-07-16T12:50:02;33.70;85.90
25877;DHT22;13692;47.480;19.216;2023-07-16T12:52:30;33.70;86.60
25877;DHT22;13692;47.480;19.216;2023-07-16T12:54:57;33.70;86.30
25877;DHT22;13692;47.480;19.216;2023-07-16T12:57:24;33.70;85.80
25877;DHT22;13692;47.480;19.216;2023-07-16T12:59:52;33.60;86.50
25877;DHT22;13692;47.480;19.216;2023-07-16T13:02:19;33.40;86.50
25877;DHT22;13692;47.480;19.216;2023-07-16T13:04:46;33.20;86.80
25877;DHT22;13692;47.480;19.216;2023-07-16T13:07:13;33.10;87.30
25877;DHT22;13692;47.480;19.216;2023-07-16T13:09:40;33.20;87.60
25877;DHT22;13692;47.480;19.216;2023-07-16T13:12:08;33.20;87.40
25877;DHT22;13692;47.480;19.216;2023-07-16T13:14:35;33.20;87.70
25877;DHT22;13692;47.480;19.216;2023-07-16T13:17:02;33.20;87.10
25877;DHT22;13692;47.480;19.216;2023-07-16T13:19:32;33.20;88.00
25877;DHT22;13692;47.480;19.216;2023-07-16T13:21:59;33.20;87.70
25877;DHT22;13692;47.480;19.216;2023-07-16T13:24:26;33.30;87.30
25877;DHT22;13692;47.480;19.216;2023-07-16T13:26:53;33.50;86.80
25877;DHT22;13692;47.480;19.216;2023-07-16T13:29:21;33.70;86.30
25877;DHT22;13692;47.480;19.216;2023-07-16T13:31:48;33.70;86.40
25877;DHT22;13692;47.480;19.216;2023-07-16T13:34:16;33.80;85.80
25877;DHT22;13692;47.480;19.216;2023-07-16T13:36:43;33.70;86.40
25877;DHT22;13692;47.480;19.216;2023-07-16T13:39:10;33.70;87.00
25877;DHT22;13692;47.480;19.216;2023-07-16T13:41:39;33.60;87.50
25877;DHT22;13692;47.480;19.216;2023-07-16T13:44:07;33.60;88.30
25877;DHT22;13692;47.480;19.216;2023-07-16T13:46:34;33.70;86.60
25877;DHT22;13692;47.480;19.216;2023-07-16T13:49:04;33.80;85.90
25877;DHT22;13692;47.480;19.216;2023-07-16T13:51:32;33.70;85.50
25877;DHT22;13692;47.480;19.216;2023-07-16T13:53:59;33.80;86.80
25877;DHT22;13692;47.480;19.216;2023-07-16T13:56:27;33.70;87.60
25877;DHT22;13692;47.480;19.216;2023-07-16T13:58:54;33.60;88.40
25877;DHT22;13692;47.480;19.216;2023-07-16T14:01:22;33.70;87.50
25877;DHT22;13692;47.480;19.216;2023-07-16T14:03:50;33.80;88.40
25877;DHT22;13692;47.480;19.216;2023-07-16T14:06:18;33.60;88.70
25877;DHT22;13692;47.480;19.216;2023-07-16T14:08:46;33.50;89.20
25877;DHT22;13692;47.480;19.216;2023-07-16T14:11:13;33.30;89.50
25877;DHT22;13692;47.480;19.216;2023-07-16T14:13:42;33.20;89.40
25877;DHT22;13692;47.480;19.216;2023-07-16T14:16:10;33.30;89.50
25877;DHT22;13692;47.480;19.216;2023-07-16T14:18:37;33.40;89.70
25877;DHT22;13692;47.480;19.216;2023-07-16T14:21:05;33.60;89.60
25877;DHT22;13692;47.480;19.216;2023-07-16T14:23:32;33.60;88.80
25877;DHT22;13692;47.480;19.216;2023-07-16T14:25:59;33.50;89.40
25877;DHT22;13692;47.480;19.216;2023-07-16T14:28:28;33.40;89.40
25877;DHT22;13692;47.480;19.216;2023-07-16T14:30:56;33.50;89.20
25877;DHT22;13692;47.480;19.216;2023-07-16T14:33:23;33.30;90.00
25877;DHT22;13692;47.480;19.216;2023-07-16T14:35:51;33.30;90.00
25877;DHT22;13692;47.480;19.216;2023-07-16T14:38:18;33.40;88.90
25877;DHT22;13692;47.480;19.216;2023-07-16T14:40:46;33.60;87.80
25877;DHT22;13692;47.480;19.216;2023-07-16T14:43:15;33.60;86.90
25877;DHT22;13692;47.480;19.216;2023-07-16T14:45:42;33.60;88.10
25877;DHT22;13692;47.480;19.216;2023-07-16T14:48:10;33.30;88.60
25877;DHT22;13692;47.480;19.216;2023-07-16T14:50:37;33.20;88.90
25877;DHT22;13692;47.480;19.216;2023-07-16T14:53:05;33.10;89.10
25877;DHT22;13692;47.480;19.216;2023-07-16T14:55:32;33.00;89.00
25877;DHT22;13692;47.480;19.216;2023-07-16T14:58:00;33.00;89.50
25877;DHT22;13692;47.480;19.216;2023-07-16T15:00:27;33.10;89.70
25877;DHT22;13692;47.480;19.216;2023-07-16T15:02:56;33.00;89.80
25877;DHT22;13692;47.480;19.216;2023-07-16T15:05:23;33.00;90.10
25877;DHT22;13692;47.480;19.216;2023-07-16T15:07:50;32.90;90.10
25877;DHT22;13692;47.480;19.216;2023-07-16T15:10:17;32.90;90.30
25877;DHT22;13692;47.480;19.216;2023-07-16T15:12:45;32.80;90.50
25877;DHT22;13692;47.480;19.216;2023-07-16T15:15:13;32.80;90.70
25877;DHT22;13692;47.480;19.216;2023-07-16T15:17:40;32.90;90.80
25877;DHT22;13692;47.480;19.216;2023-07-16T15:20:08;33.00;90.00
25877;DHT22;13692;47.480;19.216;2023-07-16T15:22:36;33.00;90.40
25877;DHT22;13692;47.480;19.216;2023-07-16T15:25:03;33.00;90.40